To NAV CANADA Home Page Login to a new session Search on AWWS site Feedback and Comments Disclaimer Vers la page française équivalente Tips FAQ What's new on the site To the Forecasts and Observations / NOTAM section To "File a Flight Plan" website Publications and other links Update of the User's profile FIC Telephone Numbers My Weather Data Folder Route Weather Data Regional Weather Data Local Weather Data To the Forecasts and Observations / NOTAM section
Request Generated 09/29/2016 at 03:16:00 UTC . Weather information available at that time is displayed.

METAR/TAF

ROBERVAL/QC    

METAR CYRJ 290300Z 13002KT 25SM SKC 05/04 A3050 RMK SLP338=
METAR CYRJ 290200Z 16003KT 25SM FEW025 06/05 A3049 RMK SC1 SC TR
SLP333=
METAR CYRJ 290100Z 11006KT 060V140 25SM FEW025 09/06 A3047 RMK SC1 SC
TR SLP327=

*** REMARK        : Forecast period has ended; this was the last TAF issued
*** REMARQUE : La période de prévision est échue; ceci était le dernier TAF qui a été émis
TAF CYRJ 281939Z 2820/2902 09007KT P6SM SCT010 BKN030 TEMPO 2820/2821
BKN010
FM282100 09005KT P6SM BKN030 TEMPO 2821/2823 BKN020
RMK NXT FCST WILL BE ISSUED AT 291145Z=
Your time UTC time
Weather data provided by Environment Canada and NAV CANADA